Audubon, MN

2:46 PM CDT on March 27, 2015 (GMT -0500)
Moorhead Municipal | | Change Station
CLOSE
Current Station
Airport
Location: Moorhead,
Elevation: 919 ft
Nearby Weather Stations

Elev 919 ft 46.84 °N, 96.66 °W | Updated 15 minutes ago

Clear
Clear
36 °F
Feels Like 29 °F
N
9
Wind Variable Wind from South
Gusts 17 mph

Today
High -- | Low -- °F
--% Chance of Precip.
Yesterday
High -- | Low -- °F
Precip. -- in
7:13 AM 7:46 PM
First Quarter, 55% visible
Pressure 30.13 in
Visibility 10.0 miles
Clouds Clear
Windchill 29 °F
Dew Point -2 °F
Humidity 20%
Rainfall 0.00 in
Snow Depth Not available.
UV 6 out of 12
Pollen .40 out of 12
Air Quality Not available.
Flu Activity Not available.
METAR KJKJ 271931Z AUTO 18008G15KT 10SM CLR 02/M19 A3013 RMK AO2

More Conditions Fewer Conditions

Pressure 30.13 in
Visibility 10.0 miles
Clouds Clear
Windchill 29 °F
Dew Point -2 °F
Humidity 20%
Rainfall 0.00 in
Snow Depth Not available.
UV 6 out of 12
Pollen .40 out of 12
Air Quality Not available.
Flu Activity Not available.
METAR KJKJ 271931Z AUTO 18008G15KT 10SM CLR 02/M19 A3013 RMK AO2

More Conditions Fewer Conditions

10-Day Weather Forecast

Almanac

Astronomy

Mar. 27, 2015 Rise Set
Actual Time
Civil Twilight
Nautical Twilight
Astronomical Twilight
Moon
Length of Visible Light
Length of Day
Tomorrow will be .
, % of the Moon is Illuminated

Today's Extremes

State Highs State Lows

Community

WunderPhotos

Upload Photos

1,808,799 photos uploaded!

WunderBlogs® & News

Nearby

Air Quality

  Air Quality AQ Index Pollutant
Not available.

Snow Depth

Station Depth Elevation

Earthquake Activity

City Distance Mag. Time & Date
Minimum magnitude displayed is 2.5.

Coastal Water Temperatures

Place Temperature

Stations

Nearby Weather Stations

Station Location Temp. Windchill Dew Point Humidity Wind Precip. Elev Updated Type